createdAt,value
2023-04-28T00:09:45.078Z,99040.41
2023-04-28T00:19:50.078Z,99037.16
2023-04-28T00:29:54.765Z,99041.86
2023-04-28T00:39:58.411Z,99037.48
2023-04-28T00:50:06.838Z,99038.96
2023-04-28T01:00:12.135Z,99044.20
2023-04-28T01:10:15.973Z,99049.62
2023-04-28T01:20:19.343Z,99051.11
2023-04-28T01:30:23.091Z,99047.97
2023-04-28T01:40:27.169Z,99043.30
2023-04-28T01:50:31.022Z,99048.05
2023-04-28T02:00:35.493Z,99050.80
2023-04-28T02:10:39.268Z,99043.81
2023-04-28T02:20:47.074Z,99035.40
2023-04-28T02:30:51.145Z,99038.77
2023-04-28T02:40:58.374Z,99035.10
2023-04-28T02:51:02.130Z,99029.36
2023-04-28T03:01:09.597Z,99032.87
2023-04-28T03:11:13.475Z,99038.37
2023-04-28T03:21:20.561Z,99036.31
2023-04-28T03:31:24.201Z,99039.71
2023-04-28T03:41:27.790Z,99041.77
2023-04-28T03:51:31.241Z,99039.81
2023-04-28T04:01:35.477Z,99037.83
2023-04-28T04:11:39.153Z,99034.48
2023-04-28T04:21:46.654Z,99036.50
2023-04-28T04:31:53.520Z,99037.77
2023-04-28T04:41:57.333Z,99037.37
2023-04-28T04:52:01.589Z,99036.61
2023-04-28T05:02:05.256Z,99036.27
2023-04-28T05:12:08.521Z,99028.80
2023-04-28T05:22:12.480Z,99025.08
2023-04-28T05:32:16.352Z,99023.31
2023-04-28T05:42:23.521Z,99020.73
2023-04-28T05:52:27.802Z,99023.23
2023-04-28T06:02:31.786Z,99013.00
2023-04-28T06:12:35.988Z,99011.34
2023-04-28T06:22:39.653Z,99007.80
2023-04-28T06:32:46.391Z,99006.98
2023-04-28T06:42:50.517Z,99004.54
2023-04-28T06:52:54.144Z,99003.43
2023-04-28T07:02:57.831Z,98992.77
2023-04-28T07:13:26.174Z,98987.23
2023-04-28T07:23:30.053Z,98971.72
2023-04-28T07:43:37.305Z,98953.70
2023-04-28T08:03:48.308Z,98941.48
2023-04-28T08:13:52.744Z,98938.85
2023-04-28T08:23:56.646Z,98927.69
2023-04-28T08:34:00.497Z,98921.52
2023-04-28T08:44:07.288Z,98907.80
2023-04-28T08:54:25.435Z,98904.52
2023-04-28T09:04:30.602Z,98903.30
2023-04-28T09:14:36.023Z,98890.44
2023-04-28T09:24:41.109Z,98884.38
2023-04-28T09:34:44.842Z,98876.73
2023-04-28T09:44:53.182Z,98858.68
2023-04-28T09:54:58.239Z,98848.08
2023-04-28T10:05:03.276Z,98840.70
2023-04-28T10:15:09.471Z,98824.52
2023-04-28T10:25:25.229Z,98818.64
2023-04-28T10:35:43.497Z,98806.61
2023-04-28T10:46:08.436Z,98793.10
2023-04-28T10:56:14.746Z,98775.76
2023-04-28T11:06:26.222Z,98766.08
2023-04-28T11:16:48.269Z,98760.40
2023-04-28T11:26:52.813Z,98745.66
2023-04-28T11:36:56.977Z,98741.77
2023-04-28T11:47:03.690Z,98734.96
2023-04-28T11:57:17.150Z,98723.92
2023-04-28T12:07:24.839Z,98713.80
2023-04-28T12:17:30.259Z,98714.84
2023-04-28T12:27:36.198Z,98707.04
2023-04-28T12:37:42.861Z,98686.44
2023-04-28T12:47:46.796Z,98672.45
2023-04-28T12:57:51.194Z,98665.19
2023-04-28T13:07:54.409Z,98646.41
2023-04-28T13:17:58.092Z,98633.86
2023-04-28T13:28:02.376Z,98626.55
2023-04-28T13:38:06.767Z,98617.75
2023-04-28T13:48:11.651Z,98613.70
2023-04-28T13:58:18.165Z,98594.90
2023-04-28T14:08:23.232Z,98579.73
2023-04-28T14:18:33.274Z,98575.98
2023-04-28T14:28:37.203Z,98566.00
2023-04-28T14:38:40.813Z,98559.42
2023-04-28T14:48:45.074Z,98553.23
2023-04-28T14:58:49.529Z,98549.59
2023-04-28T15:08:52.699Z,98551.58
2023-04-28T15:18:57.219Z,98548.93
2023-04-28T15:29:00.778Z,98542.29
2023-04-28T15:39:09.892Z,98536.75
2023-04-28T15:49:13.905Z,98524.53
2023-04-28T15:59:18.464Z,98518.09
2023-04-28T16:09:22.455Z,98508.33
2023-04-28T16:19:26.492Z,98498.12
2023-04-28T16:29:30.715Z,98494.17
2023-04-28T16:39:34.621Z,98487.38
2023-04-28T16:49:38.280Z,98481.27
2023-04-28T16:59:41.865Z,98475.33
2023-04-28T17:10:10.479Z,98472.24
2023-04-28T17:20:18.948Z,98471.84
2023-04-28T17:30:23.881Z,98463.84
2023-04-28T17:40:27.475Z,98456.27
2023-04-28T17:50:31.191Z,98456.06
2023-04-28T18:00:34.907Z,98456.33
2023-04-28T18:10:38.782Z,98463.17
2023-04-28T18:20:42.249Z,98463.08
2023-04-28T18:30:45.673Z,98463.14
2023-04-28T18:40:55.356Z,98471.48
2023-04-28T18:50:59.459Z,98480.66
2023-04-28T19:01:03.071Z,98486.36
2023-04-28T19:11:06.294Z,98510.95
2023-04-28T19:21:13.653Z,98507.87
2023-04-28T19:31:17.328Z,98506.45
2023-04-28T19:51:24.441Z,98493.37
2023-04-28T20:11:32.097Z,98489.67
2023-04-28T20:21:36.429Z,98487.81
2023-04-28T20:31:40.278Z,98483.52
2023-04-28T20:41:48.063Z,98483.88
2023-04-28T20:51:51.447Z,98488.98
2023-04-28T21:01:55.297Z,98481.07
2023-04-28T21:11:58.895Z,98472.38
2023-04-28T21:22:03.780Z,98475.36
2023-04-28T21:32:08.093Z,98474.14
2023-04-28T21:42:11.874Z,98470.69
2023-04-28T21:52:15.742Z,98470.05
2023-04-28T22:02:19.717Z,98468.60
2023-04-28T22:12:23.767Z,98465.28
2023-04-28T22:22:27.335Z,98461.63
2023-04-28T22:32:31.426Z,98452.64
2023-04-28T22:52:39.775Z,98433.90
2023-04-28T23:02:44.459Z,98435.23
2023-04-28T23:12:48.273Z,98433.17
2023-04-28T23:22:52.092Z,98431.20
2023-04-28T23:32:59.728Z,98419.41
2023-04-28T23:43:06.684Z,98407.32
2023-04-28T23:53:10.479Z,98407.28
